AUA210 LOWL-EGGP
Flight info
| Callsign | AUA210 |
|---|---|
| Flight time | 1h 59m |
| Altitude | 36000 |
| Route | LIDSI DCT RENKA L610 INBED DCT BOMBI DCT ADKUV DCT DENUT L610 LAM UN57 WELIN T420 ELVOS |
| Aircraft | A320/M-SDE3FGHIRWY/LB1 |
Departure
| Time | 2026-04-14 05:53 |
|---|---|
| Airport | Linz-Hörsching Airport (LOWL) |
Arrival
| Time | 2026-04-14 07:53 |
|---|---|
| Airport | Liverpool John Lennon Airport (EGGP) |
| Time | Latitude | Longitude | Altitude | Speed | Heading |
|---|---|---|---|---|---|
| 2026-04-14 05:32 | 48.23804 | 14.19279 | 986 ft | 0 kts | 267° |
| 2026-04-14 05:49 | 48.23804 | 14.19278 | 986 ft | 1 kts | 267° |
| 2026-04-14 05:49 | 48.23797 | 14.19222 | 986 ft | 5 kts | 225° |
| 2026-04-14 05:49 | 48.23760 | 14.19234 | 991 ft | 10 kts | 123° |
| 2026-04-14 05:49 | 48.23759 | 14.19367 | 988 ft | 7 kts | 89° |
| 2026-04-14 05:50 | 48.23765 | 14.19483 | 986 ft | 12 kts | 87° |
| 2026-04-14 05:50 | 48.23754 | 14.19591 | 988 ft | 9 kts | 135° |
| 2026-04-14 05:50 | 48.23671 | 14.19644 | 989 ft | 18 kts | 159° |
| 2026-04-14 05:50 | 48.23545 | 14.19717 | 992 ft | 20 kts | 158° |
| 2026-04-14 05:51 | 48.23410 | 14.19797 | 987 ft | 22 kts | 159° |
| 2026-04-14 05:51 | 48.23363 | 14.19979 | 985 ft | 21 kts | 86° |
| 2026-04-14 05:51 | 48.23373 | 14.20209 | 982 ft | 24 kts | 87° |
| 2026-04-14 05:51 | 48.23381 | 14.20472 | 980 ft | 26 kts | 87° |
| 2026-04-14 05:52 | 48.23415 | 14.20688 | 982 ft | 19 kts | 82° |
| 2026-04-14 05:52 | 48.23393 | 14.20697 | 982 ft | 7 kts | 235° |
| 2026-04-14 05:52 | 48.23387 | 14.20661 | 984 ft | 0 kts | 265° |
| 2026-04-14 05:52 | 48.23385 | 14.20558 | 983 ft | 35 kts | 267° |
| 2026-04-14 05:53 | 48.23358 | 14.19814 | 984 ft | 104 kts | 266° |
| 2026-04-14 05:53 | 48.23310 | 14.18451 | 995 ft | 156 kts | 266° |
| 2026-04-14 05:53 | 48.23249 | 14.16722 | 1420 ft | 170 kts | 268° |
| 2026-04-14 05:53 | 48.23205 | 14.14934 | 2119 ft | 172 kts | 268° |
| 2026-04-14 05:54 | 48.23148 | 14.13159 | 2795 ft | 169 kts | 267° |
| 2026-04-14 05:54 | 48.23083 | 14.11407 | 3432 ft | 167 kts | 267° |
| 2026-04-14 05:54 | 48.23018 | 14.09670 | 4045 ft | 166 kts | 267° |
| 2026-04-14 05:54 | 48.22951 | 14.07883 | 4418 ft | 181 kts | 266° |
| 2026-04-14 05:55 | 48.22876 | 14.05883 | 4635 ft | 203 kts | 266° |
| 2026-04-14 05:55 | 48.22791 | 14.03633 | 4889 ft | 229 kts | 266° |
| 2026-04-14 05:55 | 48.22697 | 14.01124 | 5279 ft | 253 kts | 266° |
| 2026-04-14 05:55 | 48.22599 | 13.98423 | 5924 ft | 264 kts | 266° |
| 2026-04-14 05:56 | 48.22499 | 13.95640 | 6695 ft | 270 kts | 266° |
| 2026-04-14 05:56 | 48.22545 | 13.92805 | 7469 ft | 275 kts | 279° |
| 2026-04-14 05:56 | 48.23136 | 13.90065 | 8217 ft | 280 kts | 297° |
| 2026-04-14 05:56 | 48.24292 | 13.87690 | 8970 ft | 286 kts | 316° |
| 2026-04-14 05:57 | 48.25875 | 13.85850 | 9716 ft | 291 kts | 325° |
| 2026-04-14 05:57 | 48.26976 | 13.84686 | 10205 ft | 294 kts | 325° |
| 2026-04-14 05:57 | 48.28704 | 13.82844 | 10493 ft | 316 kts | 324° |
| 2026-04-14 05:57 | 48.30553 | 13.80859 | 10747 ft | 336 kts | 324° |
| 2026-04-14 05:58 | 48.32485 | 13.78777 | 11304 ft | 345 kts | 324° |
| 2026-04-14 05:58 | 48.34452 | 13.76652 | 11955 ft | 350 kts | 324° |
| 2026-04-14 05:58 | 48.36435 | 13.74511 | 12669 ft | 353 kts | 323° |
| 2026-04-14 05:58 | 48.38448 | 13.72333 | 13331 ft | 358 kts | 323° |
| 2026-04-14 05:59 | 48.41135 | 13.69418 | 14204 ft | 362 kts | 323° |
| 2026-04-14 05:59 | 48.42521 | 13.67909 | 14609 ft | 364 kts | 323° |
| 2026-04-14 05:59 | 48.44583 | 13.65661 | 15210 ft | 368 kts | 323° |
| 2026-04-14 05:59 | 48.46665 | 13.63394 | 15811 ft | 371 kts | 323° |
| 2026-04-14 06:00 | 48.48769 | 13.61107 | 16394 ft | 375 kts | 323° |
| 2026-04-14 06:00 | 48.50894 | 13.58795 | 16964 ft | 379 kts | 323° |
| 2026-04-14 06:00 | 48.53043 | 13.56458 | 17531 ft | 383 kts | 323° |
| 2026-04-14 06:00 | 48.55208 | 13.54089 | 18090 ft | 386 kts | 321° |
| 2026-04-14 06:01 | 48.57185 | 13.51336 | 18623 ft | 387 kts | 310° |
| 2026-04-14 06:01 | 48.58786 | 13.48074 | 19135 ft | 387 kts | 299° |
| 2026-04-14 06:01 | 48.59951 | 13.44472 | 19638 ft | 387 kts | 289° |
| 2026-04-14 06:01 | 48.60875 | 13.40630 | 20148 ft | 389 kts | 288° |
| 2026-04-14 06:02 | 48.61801 | 13.36773 | 20641 ft | 392 kts | 288° |
| 2026-04-14 06:02 | 48.62734 | 13.32894 | 21128 ft | 394 kts | 288° |
| 2026-04-14 06:02 | 48.63672 | 13.28988 | 21629 ft | 397 kts | 288° |
| 2026-04-14 06:02 | 48.64615 | 13.25059 | 22111 ft | 399 kts | 288° |
| 2026-04-14 06:03 | 48.65562 | 13.21103 | 22588 ft | 401 kts | 288° |
| 2026-04-14 06:03 | 48.66513 | 13.17117 | 23049 ft | 403 kts | 288° |
| 2026-04-14 06:03 | 48.67462 | 13.13116 | 23511 ft | 406 kts | 288° |
| 2026-04-14 06:04 | 48.69372 | 13.05061 | 24330 ft | 408 kts | 288° |
| 2026-04-14 06:04 | 48.70331 | 13.01007 | 24696 ft | 410 kts | 288° |
| 2026-04-14 06:04 | 48.71297 | 12.96923 | 25055 ft | 412 kts | 287° |
| 2026-04-14 06:04 | 48.72265 | 12.92824 | 25407 ft | 415 kts | 287° |
| 2026-04-14 06:05 | 48.73238 | 12.88701 | 25764 ft | 417 kts | 287° |
| 2026-04-14 06:05 | 48.74212 | 12.84553 | 26109 ft | 419 kts | 287° |
| 2026-04-14 06:05 | 48.75188 | 12.80380 | 26449 ft | 421 kts | 287° |
| 2026-04-14 06:05 | 48.76166 | 12.76185 | 26782 ft | 423 kts | 287° |
| 2026-04-14 06:06 | 48.77145 | 12.71957 | 27116 ft | 425 kts | 287° |
| 2026-04-14 06:06 | 48.78126 | 12.67711 | 27442 ft | 428 kts | 287° |
| 2026-04-14 06:06 | 48.79115 | 12.63444 | 27778 ft | 430 kts | 287° |
| 2026-04-14 06:06 | 48.80111 | 12.59157 | 28101 ft | 432 kts | 287° |
| 2026-04-14 06:07 | 48.81111 | 12.54846 | 28420 ft | 434 kts | 287° |
| 2026-04-14 06:07 | 48.82108 | 12.50526 | 28730 ft | 436 kts | 287° |
| 2026-04-14 06:07 | 48.83112 | 12.46159 | 29065 ft | 439 kts | 287° |
| 2026-04-14 06:07 | 48.84118 | 12.41777 | 29368 ft | 441 kts | 287° |
| 2026-04-14 06:08 | 48.85129 | 12.37375 | 29658 ft | 443 kts | 287° |
| 2026-04-14 06:08 | 48.86142 | 12.32952 | 29957 ft | 444 kts | 287° |
| 2026-04-14 06:08 | 48.87159 | 12.28507 | 30177 ft | 447 kts | 287° |
| 2026-04-14 06:08 | 48.88184 | 12.24024 | 30381 ft | 450 kts | 288° |
| 2026-04-14 06:09 | 48.89441 | 12.19654 | 30590 ft | 454 kts | 295° |
| 2026-04-14 06:09 | 48.90877 | 12.15375 | 30817 ft | 455 kts | 295° |
| 2026-04-14 06:09 | 48.92315 | 12.11082 | 31099 ft | 455 kts | 295° |
| 2026-04-14 06:09 | 48.93749 | 12.06794 | 31430 ft | 455 kts | 295° |
| 2026-04-14 06:10 | 48.95177 | 12.02509 | 31761 ft | 454 kts | 294° |
| 2026-04-14 06:10 | 48.96597 | 11.98224 | 32089 ft | 453 kts | 294° |
| 2026-04-14 06:10 | 48.98009 | 11.93945 | 32412 ft | 453 kts | 294° |
| 2026-04-14 06:10 | 48.99419 | 11.89662 | 32738 ft | 452 kts | 295° |
| 2026-04-14 06:11 | 49.00826 | 11.85387 | 33072 ft | 451 kts | 295° |
| 2026-04-14 06:11 | 49.02229 | 11.81120 | 33387 ft | 450 kts | 295° |
| 2026-04-14 06:11 | 49.03632 | 11.76865 | 33715 ft | 449 kts | 295° |
| 2026-04-14 06:11 | 49.05035 | 11.72613 | 34017 ft | 449 kts | 295° |
| 2026-04-14 06:12 | 49.06434 | 11.68361 | 34266 ft | 448 kts | 295° |
| 2026-04-14 06:12 | 49.07830 | 11.64109 | 34515 ft | 448 kts | 295° |
| 2026-04-14 06:12 | 49.09222 | 11.59857 | 34757 ft | 448 kts | 294° |
| 2026-04-14 06:12 | 49.10610 | 11.55600 | 34978 ft | 448 kts | 294° |
| 2026-04-14 06:13 | 49.11994 | 11.51340 | 35223 ft | 448 kts | 295° |
| 2026-04-14 06:13 | 49.13378 | 11.47086 | 35453 ft | 447 kts | 295° |
| 2026-04-14 06:13 | 49.14761 | 11.42833 | 35662 ft | 447 kts | 294° |
| 2026-04-14 06:13 | 49.16139 | 11.38575 | 35859 ft | 447 kts | 295° |
| 2026-04-14 06:14 | 49.17514 | 11.34313 | 36024 ft | 448 kts | 294° |
| 2026-04-14 06:14 | 49.20300 | 11.25710 | 36054 ft | 454 kts | 297° |
| 2026-04-14 06:15 | 49.24058 | 11.17917 | 36078 ft | 459 kts | 312° |
| 2026-04-14 06:15 | 49.28467 | 11.10851 | 36082 ft | 459 kts | 312° |
| 2026-04-14 06:16 | 49.32868 | 11.03757 | 36073 ft | 458 kts | 312° |
| 2026-04-14 06:16 | 49.37199 | 10.96685 | 36084 ft | 458 kts | 309° |
| 2026-04-14 06:17 | 49.40597 | 10.88513 | 36081 ft | 454 kts | 295° |
| 2026-04-14 06:17 | 49.43406 | 10.79811 | 36080 ft | 455 kts | 295° |
| 2026-04-14 06:18 | 49.46230 | 10.71131 | 36093 ft | 454 kts | 295° |
| 2026-04-14 06:18 | 49.49044 | 10.62442 | 36090 ft | 454 kts | 295° |
| 2026-04-14 06:19 | 49.51842 | 10.53738 | 36083 ft | 454 kts | 295° |
| 2026-04-14 06:19 | 49.54631 | 10.45022 | 36083 ft | 454 kts | 294° |
| 2026-04-14 06:20 | 49.57415 | 10.36295 | 36106 ft | 454 kts | 295° |
| 2026-04-14 06:20 | 49.60192 | 10.27566 | 36114 ft | 453 kts | 295° |
| 2026-04-14 06:21 | 49.62958 | 10.18837 | 36118 ft | 452 kts | 295° |
| 2026-04-14 06:21 | 49.65712 | 10.10128 | 36092 ft | 451 kts | 295° |
| 2026-04-14 06:22 | 49.68462 | 10.01416 | 36090 ft | 451 kts | 294° |
| 2026-04-14 06:22 | 49.71196 | 9.92700 | 36106 ft | 451 kts | 294° |
| 2026-04-14 06:23 | 49.73913 | 9.83985 | 36116 ft | 450 kts | 294° |
| 2026-04-14 06:23 | 49.76626 | 9.75274 | 36098 ft | 449 kts | 294° |
| 2026-04-14 06:24 | 49.79332 | 9.66567 | 36102 ft | 449 kts | 294° |
| 2026-04-14 06:24 | 49.82031 | 9.57853 | 36107 ft | 449 kts | 294° |
| 2026-04-14 06:25 | 49.84723 | 9.49122 | 36120 ft | 448 kts | 294° |
| 2026-04-14 06:25 | 49.87387 | 9.40432 | 36135 ft | 446 kts | 294° |
| 2026-04-14 06:26 | 49.90038 | 9.31755 | 36129 ft | 445 kts | 294° |
| 2026-04-14 06:26 | 49.92664 | 9.23145 | 36137 ft | 444 kts | 294° |
| 2026-04-14 06:27 | 49.95298 | 9.14483 | 36126 ft | 443 kts | 294° |
| 2026-04-14 06:27 | 49.97924 | 9.05829 | 36137 ft | 443 kts | 294° |
| 2026-04-14 06:28 | 50.00538 | 8.97168 | 36138 ft | 443 kts | 294° |
| 2026-04-14 06:28 | 50.03137 | 8.88499 | 36144 ft | 442 kts | 294° |
| 2026-04-14 06:29 | 50.05720 | 8.79814 | 36145 ft | 442 kts | 293° |
| 2026-04-14 06:29 | 50.08001 | 8.70931 | 36147 ft | 442 kts | 289° |
| 2026-04-14 06:30 | 50.10033 | 8.61909 | 36145 ft | 442 kts | 288° |
| 2026-04-14 06:30 | 50.12072 | 8.52864 | 36147 ft | 442 kts | 289° |
| 2026-04-14 06:31 | 50.14172 | 8.43864 | 36145 ft | 442 kts | 289° |
| 2026-04-14 06:31 | 50.16294 | 8.34865 | 36145 ft | 442 kts | 289° |
| 2026-04-14 06:32 | 50.18397 | 8.25862 | 36151 ft | 442 kts | 289° |
| 2026-04-14 06:32 | 50.20487 | 8.16829 | 36145 ft | 442 kts | 289° |
| 2026-04-14 06:33 | 50.22571 | 8.07790 | 36144 ft | 443 kts | 289° |
| 2026-04-14 06:33 | 50.24640 | 7.98737 | 36146 ft | 443 kts | 289° |
| 2026-04-14 06:34 | 50.27734 | 7.85213 | 36147 ft | 443 kts | 289° |
| 2026-04-14 06:34 | 50.29797 | 7.76139 | 36152 ft | 443 kts | 289° |
| 2026-04-14 06:35 | 50.31848 | 7.67063 | 36154 ft | 442 kts | 289° |
| 2026-04-14 06:35 | 50.33898 | 7.57983 | 36152 ft | 442 kts | 289° |
| 2026-04-14 06:36 | 50.35923 | 7.48905 | 36143 ft | 442 kts | 289° |
| 2026-04-14 06:36 | 50.37946 | 7.39804 | 36148 ft | 442 kts | 289° |
| 2026-04-14 06:37 | 50.39975 | 7.30709 | 36153 ft | 442 kts | 289° |
| 2026-04-14 06:37 | 50.41990 | 7.21624 | 36149 ft | 441 kts | 289° |
| 2026-04-14 06:38 | 50.43991 | 7.12525 | 36150 ft | 441 kts | 289° |
| 2026-04-14 06:38 | 50.45981 | 7.03431 | 36147 ft | 441 kts | 289° |
| 2026-04-14 06:39 | 50.47966 | 6.94332 | 36149 ft | 440 kts | 289° |
| 2026-04-14 06:39 | 50.49944 | 6.85235 | 36150 ft | 440 kts | 289° |
| 2026-04-14 06:40 | 50.51963 | 6.76172 | 36149 ft | 439 kts | 290° |
| 2026-04-14 06:40 | 50.54181 | 6.67298 | 36150 ft | 439 kts | 291° |
| 2026-04-14 06:41 | 50.56455 | 6.58396 | 36149 ft | 439 kts | 291° |
| 2026-04-14 06:41 | 50.58680 | 6.49454 | 36142 ft | 439 kts | 291° |
| 2026-04-14 06:42 | 50.60859 | 6.40482 | 36143 ft | 439 kts | 290° |
| 2026-04-14 06:42 | 50.63024 | 6.31498 | 36145 ft | 439 kts | 290° |
| 2026-04-14 06:43 | 50.65199 | 6.22499 | 36144 ft | 439 kts | 290° |
| 2026-04-14 06:43 | 50.67374 | 6.13514 | 36147 ft | 439 kts | 290° |
| 2026-04-14 06:44 | 50.69169 | 6.06031 | 36144 ft | 439 kts | 291° |
| 2026-04-14 06:44 | 50.71318 | 5.97017 | 36165 ft | 439 kts | 291° |
| 2026-04-14 06:45 | 50.73465 | 5.88004 | 36181 ft | 438 kts | 290° |
| 2026-04-14 06:45 | 50.75596 | 5.78984 | 36179 ft | 438 kts | 290° |
| 2026-04-14 06:46 | 50.78798 | 5.65452 | 36179 ft | 438 kts | 290° |
| 2026-04-14 06:47 | 50.80917 | 5.56434 | 36182 ft | 437 kts | 291° |
| 2026-04-14 06:47 | 50.83022 | 5.47424 | 36184 ft | 436 kts | 291° |
| 2026-04-14 06:48 | 50.85120 | 5.38421 | 36180 ft | 436 kts | 290° |
| 2026-04-14 06:48 | 50.87204 | 5.29425 | 36177 ft | 435 kts | 290° |
| 2026-04-14 06:49 | 50.89281 | 5.20432 | 36174 ft | 435 kts | 290° |
| 2026-04-14 06:49 | 50.91351 | 5.11445 | 36174 ft | 434 kts | 291° |
| 2026-04-14 06:50 | 50.93403 | 5.02460 | 36179 ft | 433 kts | 291° |
| 2026-04-14 06:50 | 50.95445 | 4.93482 | 36174 ft | 432 kts | 291° |
| 2026-04-14 06:51 | 50.97478 | 4.84516 | 36172 ft | 432 kts | 291° |
| 2026-04-14 06:51 | 50.99506 | 4.75546 | 36171 ft | 431 kts | 291° |
| 2026-04-14 06:52 | 51.01524 | 4.66581 | 36185 ft | 431 kts | 291° |
| 2026-04-14 06:52 | 51.03527 | 4.57637 | 36200 ft | 429 kts | 291° |
| 2026-04-14 06:53 | 51.05518 | 4.48706 | 36217 ft | 428 kts | 291° |
| 2026-04-14 06:53 | 51.07493 | 4.39792 | 36211 ft | 427 kts | 291° |
| 2026-04-14 06:54 | 51.09462 | 4.30881 | 36207 ft | 427 kts | 291° |
| 2026-04-14 06:54 | 51.11432 | 4.21967 | 36211 ft | 426 kts | 291° |
| 2026-04-14 06:55 | 51.13386 | 4.13064 | 36206 ft | 426 kts | 291° |
| 2026-04-14 06:55 | 51.15330 | 4.04146 | 36202 ft | 426 kts | 291° |
| 2026-04-14 06:56 | 51.17276 | 3.95216 | 36190 ft | 426 kts | 291° |
| 2026-04-14 06:56 | 51.19210 | 3.86293 | 36185 ft | 426 kts | 291° |
| 2026-04-14 06:57 | 51.21133 | 3.77347 | 36177 ft | 426 kts | 291° |
| 2026-04-14 06:57 | 51.23035 | 3.68483 | 36187 ft | 425 kts | 291° |
| 2026-04-14 06:58 | 51.24489 | 3.59340 | 36183 ft | 426 kts | 285° |
| 2026-04-14 06:58 | 51.25715 | 3.50089 | 36184 ft | 425 kts | 284° |
| 2026-04-14 06:59 | 51.26925 | 3.40847 | 36187 ft | 425 kts | 284° |
| 2026-04-14 06:59 | 51.28125 | 3.31603 | 36170 ft | 425 kts | 284° |
| 2026-04-14 07:00 | 51.29307 | 3.22363 | 36188 ft | 424 kts | 284° |
| 2026-04-14 07:00 | 51.30478 | 3.13137 | 36193 ft | 423 kts | 284° |
| 2026-04-14 07:01 | 51.31646 | 3.03931 | 36197 ft | 422 kts | 284° |
| 2026-04-14 07:01 | 51.32801 | 2.94733 | 36191 ft | 422 kts | 284° |
| 2026-04-14 07:02 | 51.33947 | 2.85536 | 36164 ft | 422 kts | 284° |
| 2026-04-14 07:02 | 51.35083 | 2.76345 | 36166 ft | 421 kts | 284° |
| 2026-04-14 07:03 | 51.36220 | 2.67164 | 36170 ft | 420 kts | 284° |
| 2026-04-14 07:03 | 51.37356 | 2.57991 | 36174 ft | 420 kts | 284° |
| 2026-04-14 07:04 | 51.38478 | 2.48806 | 36171 ft | 420 kts | 284° |
| 2026-04-14 07:04 | 51.39589 | 2.39619 | 36175 ft | 420 kts | 284° |
| 2026-04-14 07:05 | 51.40690 | 2.30445 | 36174 ft | 419 kts | 284° |
| 2026-04-14 07:05 | 51.41789 | 2.21288 | 36177 ft | 418 kts | 284° |
| 2026-04-14 07:06 | 51.42912 | 2.12152 | 36176 ft | 418 kts | 284° |
| 2026-04-14 07:06 | 51.44027 | 2.03021 | 36181 ft | 417 kts | 284° |
| 2026-04-14 07:07 | 51.45124 | 1.93876 | 36176 ft | 417 kts | 284° |
| 2026-04-14 07:07 | 51.46191 | 1.84743 | 36174 ft | 417 kts | 284° |
| 2026-04-14 07:08 | 51.47240 | 1.75671 | 36176 ft | 416 kts | 284° |
| 2026-04-14 07:08 | 51.48282 | 1.66560 | 36175 ft | 415 kts | 284° |
| 2026-04-14 07:09 | 51.49320 | 1.57455 | 36175 ft | 415 kts | 284° |
| 2026-04-14 07:09 | 51.50356 | 1.48356 | 36174 ft | 414 kts | 284° |
| 2026-04-14 07:10 | 51.51382 | 1.39253 | 36164 ft | 414 kts | 284° |
| 2026-04-14 07:10 | 51.52393 | 1.30168 | 36163 ft | 413 kts | 284° |
| 2026-04-14 07:11 | 51.53401 | 1.21089 | 36166 ft | 412 kts | 284° |
| 2026-04-14 07:11 | 51.54401 | 1.12016 | 36166 ft | 412 kts | 284° |
| 2026-04-14 07:12 | 51.55394 | 1.02964 | 36165 ft | 412 kts | 284° |
| 2026-04-14 07:12 | 51.56381 | 0.93893 | 36136 ft | 411 kts | 284° |
| 2026-04-14 07:13 | 51.57352 | 0.84840 | 36170 ft | 410 kts | 284° |
| 2026-04-14 07:13 | 51.58318 | 0.75799 | 36164 ft | 410 kts | 284° |
| 2026-04-14 07:14 | 51.59273 | 0.66774 | 36158 ft | 409 kts | 283° |
| 2026-04-14 07:14 | 51.60216 | 0.57757 | 36159 ft | 409 kts | 283° |
| 2026-04-14 07:15 | 51.61151 | 0.48791 | 36156 ft | 409 kts | 283° |
| 2026-04-14 07:15 | 51.62080 | 0.39789 | 36155 ft | 408 kts | 283° |
| 2026-04-14 07:16 | 51.63004 | 0.30802 | 36155 ft | 407 kts | 283° |
| 2026-04-14 07:16 | 51.63942 | 0.21839 | 36155 ft | 405 kts | 286° |
| 2026-04-14 07:17 | 51.66023 | 0.13582 | 36153 ft | 397 kts | 305° |
| 2026-04-14 07:17 | 51.69641 | 0.06937 | 36149 ft | 395 kts | 315° |
| 2026-04-14 07:18 | 51.73495 | 0.00619 | 36146 ft | 395 kts | 314° |
| 2026-04-14 07:18 | 51.77336 | -0.05735 | 36097 ft | 394 kts | 314° |
| 2026-04-14 07:19 | 51.81162 | -0.12068 | 36130 ft | 393 kts | 314° |
| 2026-04-14 07:19 | 51.84986 | -0.18399 | 36144 ft | 393 kts | 314° |
| 2026-04-14 07:20 | 51.88810 | -0.24736 | 36136 ft | 393 kts | 314° |
| 2026-04-14 07:20 | 51.92625 | -0.31087 | 36130 ft | 393 kts | 314° |
| 2026-04-14 07:21 | 51.96435 | -0.37453 | 36122 ft | 393 kts | 313° |
| 2026-04-14 07:21 | 52.00230 | -0.43818 | 35936 ft | 389 kts | 314° |
| 2026-04-14 07:21 | 52.02094 | -0.46944 | 35686 ft | 383 kts | 314° |
| 2026-04-14 07:22 | 52.03939 | -0.50041 | 35414 ft | 381 kts | 314° |
| 2026-04-14 07:22 | 52.05780 | -0.53139 | 35186 ft | 381 kts | 314° |
| 2026-04-14 07:22 | 52.07616 | -0.56235 | 34945 ft | 380 kts | 314° |
| 2026-04-14 07:22 | 52.09451 | -0.59331 | 34497 ft | 381 kts | 314° |
| 2026-04-14 07:23 | 52.11281 | -0.62417 | 34012 ft | 376 kts | 314° |
| 2026-04-14 07:23 | 52.13083 | -0.65459 | 33509 ft | 371 kts | 314° |
| 2026-04-14 07:23 | 52.14862 | -0.68464 | 33044 ft | 365 kts | 314° |
| 2026-04-14 07:23 | 52.16610 | -0.71419 | 32585 ft | 360 kts | 314° |
| 2026-04-14 07:24 | 52.18331 | -0.74336 | 32147 ft | 354 kts | 313° |
| 2026-04-14 07:24 | 52.20028 | -0.77219 | 31696 ft | 349 kts | 313° |
| 2026-04-14 07:24 | 52.21699 | -0.80058 | 31254 ft | 345 kts | 313° |
| 2026-04-14 07:24 | 52.23344 | -0.82858 | 30794 ft | 341 kts | 313° |
| 2026-04-14 07:25 | 52.25091 | -0.85455 | 30310 ft | 339 kts | 321° |
| 2026-04-14 07:25 | 52.27064 | -0.87553 | 29789 ft | 338 kts | 325° |
| 2026-04-14 07:25 | 52.29066 | -0.89524 | 29334 ft | 333 kts | 325° |
| 2026-04-14 07:25 | 52.30373 | -0.90817 | 29011 ft | 331 kts | 325° |
| 2026-04-14 07:26 | 52.32326 | -0.92757 | 28561 ft | 326 kts | 325° |
| 2026-04-14 07:26 | 52.34251 | -0.94675 | 28131 ft | 322 kts | 325° |
| 2026-04-14 07:26 | 52.36151 | -0.96571 | 27704 ft | 318 kts | 325° |
| 2026-04-14 07:26 | 52.38029 | -0.98449 | 27286 ft | 314 kts | 325° |
| 2026-04-14 07:27 | 52.39885 | -1.00304 | 26861 ft | 312 kts | 324° |
| 2026-04-14 07:27 | 52.41734 | -1.02154 | 26483 ft | 313 kts | 324° |
| 2026-04-14 07:27 | 52.43672 | -1.04111 | 26024 ft | 341 kts | 324° |
| 2026-04-14 07:27 | 52.45737 | -1.06201 | 25574 ft | 354 kts | 325° |
| 2026-04-14 07:28 | 52.47849 | -1.08327 | 25107 ft | 358 kts | 325° |
| 2026-04-14 07:28 | 52.49977 | -1.10458 | 24630 ft | 358 kts | 325° |
| 2026-04-14 07:28 | 52.52103 | -1.12587 | 24167 ft | 358 kts | 325° |
| 2026-04-14 07:28 | 52.54225 | -1.14716 | 23653 ft | 358 kts | 325° |
| 2026-04-14 07:29 | 52.56350 | -1.16854 | 23102 ft | 358 kts | 325° |
| 2026-04-14 07:29 | 52.58469 | -1.18990 | 22602 ft | 357 kts | 325° |
| 2026-04-14 07:29 | 52.60586 | -1.21126 | 22111 ft | 356 kts | 325° |
| 2026-04-14 07:29 | 52.62691 | -1.23252 | 21625 ft | 355 kts | 325° |
| 2026-04-14 07:30 | 52.64795 | -1.25377 | 21133 ft | 354 kts | 325° |
| 2026-04-14 07:30 | 52.66868 | -1.27474 | 20657 ft | 353 kts | 325° |
| 2026-04-14 07:30 | 52.68984 | -1.29618 | 20187 ft | 352 kts | 325° |
| 2026-04-14 07:30 | 52.71072 | -1.31736 | 19763 ft | 351 kts | 325° |
| 2026-04-14 07:31 | 52.73125 | -1.33825 | 19571 ft | 352 kts | 325° |
| 2026-04-14 07:31 | 52.75209 | -1.35950 | 19439 ft | 352 kts | 325° |
| 2026-04-14 07:31 | 52.77288 | -1.38077 | 19171 ft | 351 kts | 325° |
| 2026-04-14 07:31 | 52.79363 | -1.40198 | 18919 ft | 351 kts | 325° |
| 2026-04-14 07:32 | 52.81438 | -1.42317 | 18662 ft | 350 kts | 325° |
| 2026-04-14 07:32 | 52.83511 | -1.44435 | 18404 ft | 350 kts | 325° |
| 2026-04-14 07:32 | 52.85584 | -1.46558 | 18115 ft | 349 kts | 325° |
| 2026-04-14 07:32 | 52.87641 | -1.48673 | 17862 ft | 348 kts | 324° |
| 2026-04-14 07:33 | 52.89697 | -1.50791 | 17607 ft | 347 kts | 324° |
| 2026-04-14 07:33 | 52.91739 | -1.52894 | 17350 ft | 346 kts | 324° |
| 2026-04-14 07:33 | 52.93777 | -1.54993 | 17101 ft | 344 kts | 324° |
| 2026-04-14 07:34 | 52.99850 | -1.61254 | 16351 ft | 340 kts | 324° |
| 2026-04-14 07:34 | 53.01851 | -1.63325 | 16093 ft | 338 kts | 323° |
| 2026-04-14 07:34 | 53.03649 | -1.65773 | 15834 ft | 332 kts | 310° |
| 2026-04-14 07:35 | 53.04999 | -1.68839 | 15589 ft | 327 kts | 296° |
| 2026-04-14 07:35 | 53.05852 | -1.72325 | 15352 ft | 324 kts | 283° |
| 2026-04-14 07:35 | 53.06260 | -1.75995 | 15114 ft | 323 kts | 278° |
| 2026-04-14 07:35 | 53.06612 | -1.79680 | 14874 ft | 322 kts | 278° |
| 2026-04-14 07:36 | 53.06964 | -1.83351 | 14634 ft | 321 kts | 278° |
| 2026-04-14 07:36 | 53.07314 | -1.87009 | 14397 ft | 320 kts | 278° |
| 2026-04-14 07:36 | 53.07661 | -1.90657 | 14162 ft | 319 kts | 278° |
| 2026-04-14 07:36 | 53.08005 | -1.94291 | 13930 ft | 318 kts | 278° |
| 2026-04-14 07:37 | 53.08347 | -1.97912 | 13676 ft | 316 kts | 278° |
| 2026-04-14 07:37 | 53.08687 | -2.01523 | 13439 ft | 316 kts | 278° |
| 2026-04-14 07:37 | 53.09024 | -2.05125 | 13205 ft | 315 kts | 278° |
| 2026-04-14 07:37 | 53.09360 | -2.08717 | 12975 ft | 314 kts | 278° |
| 2026-04-14 07:38 | 53.09694 | -2.12295 | 12732 ft | 312 kts | 278° |
| 2026-04-14 07:38 | 53.10030 | -2.15863 | 12523 ft | 312 kts | 278° |
| 2026-04-14 07:38 | 53.10362 | -2.19420 | 12281 ft | 309 kts | 278° |
| 2026-04-14 07:38 | 53.10685 | -2.22888 | 12143 ft | 298 kts | 278° |
| 2026-04-14 07:39 | 53.10993 | -2.26236 | 12006 ft | 288 kts | 277° |
| 2026-04-14 07:39 | 53.11287 | -2.29469 | 11869 ft | 278 kts | 277° |
| 2026-04-14 07:39 | 53.11574 | -2.32627 | 11601 ft | 274 kts | 277° |
| 2026-04-14 07:39 | 53.11858 | -2.35752 | 11268 ft | 273 kts | 277° |
| 2026-04-14 07:40 | 53.12139 | -2.38863 | 11038 ft | 272 kts | 277° |
| 2026-04-14 07:40 | 53.12417 | -2.41984 | 10834 ft | 272 kts | 277° |
| 2026-04-14 07:40 | 53.12695 | -2.45096 | 10629 ft | 272 kts | 277° |
| 2026-04-14 07:40 | 53.12971 | -2.48209 | 10431 ft | 271 kts | 277° |
| 2026-04-14 07:41 | 53.13246 | -2.51306 | 10241 ft | 270 kts | 277° |
| 2026-04-14 07:41 | 53.13524 | -2.54404 | 10134 ft | 270 kts | 277° |
| 2026-04-14 07:41 | 53.13803 | -2.57495 | 10013 ft | 270 kts | 277° |
| 2026-04-14 07:41 | 53.14097 | -2.60588 | 9822 ft | 270 kts | 278° |
| 2026-04-14 07:42 | 53.14394 | -2.63629 | 9648 ft | 270 kts | 278° |
| 2026-04-14 07:42 | 53.14700 | -2.66752 | 9465 ft | 269 kts | 278° |
| 2026-04-14 07:42 | 53.14994 | -2.69783 | 9299 ft | 269 kts | 277° |
| 2026-04-14 07:42 | 53.15292 | -2.72864 | 9122 ft | 269 kts | 277° |
| 2026-04-14 07:43 | 53.15586 | -2.75940 | 8954 ft | 267 kts | 277° |
| 2026-04-14 07:43 | 53.15871 | -2.78926 | 8811 ft | 256 kts | 277° |
| 2026-04-14 07:43 | 53.16145 | -2.81798 | 8636 ft | 248 kts | 277° |
| 2026-04-14 07:43 | 53.16414 | -2.84628 | 8465 ft | 247 kts | 277° |
| 2026-04-14 07:44 | 53.16681 | -2.87452 | 8307 ft | 247 kts | 277° |
| 2026-04-14 07:44 | 53.16948 | -2.90280 | 8149 ft | 247 kts | 276° |
| 2026-04-14 07:44 | 53.17214 | -2.93107 | 7981 ft | 247 kts | 276° |
| 2026-04-14 07:44 | 53.17479 | -2.95936 | 7837 ft | 247 kts | 276° |
| 2026-04-14 07:45 | 53.17739 | -2.98719 | 7695 ft | 238 kts | 276° |
| 2026-04-14 07:45 | 53.17986 | -3.01364 | 7562 ft | 223 kts | 276° |
| 2026-04-14 07:45 | 53.18215 | -3.03837 | 7440 ft | 208 kts | 275° |
| 2026-04-14 07:45 | 53.18430 | -3.06145 | 7363 ft | 195 kts | 275° |
| 2026-04-14 07:46 | 53.18637 | -3.08368 | 7282 ft | 193 kts | 275° |
| 2026-04-14 07:46 | 53.18840 | -3.10573 | 7185 ft | 193 kts | 275° |
| 2026-04-14 07:46 | 53.19243 | -3.12713 | 7091 ft | 197 kts | 296° |
| 2026-04-14 07:46 | 53.20169 | -3.14424 | 6983 ft | 203 kts | 321° |
| 2026-04-14 07:47 | 53.21487 | -3.15354 | 6577 ft | 211 kts | 349° |
| 2026-04-14 07:47 | 53.22946 | -3.15550 | 6152 ft | 210 kts | 354° |
| 2026-04-14 07:47 | 53.24399 | -3.15731 | 5746 ft | 209 kts | 354° |
| 2026-04-14 07:47 | 53.25846 | -3.15920 | 5328 ft | 208 kts | 354° |
| 2026-04-14 07:48 | 53.27284 | -3.16113 | 4941 ft | 207 kts | 355° |
| 2026-04-14 07:48 | 53.28718 | -3.16131 | 4533 ft | 206 kts | 10° |
| 2026-04-14 07:48 | 53.30058 | -3.15391 | 4183 ft | 202 kts | 31° |
| 2026-04-14 07:48 | 53.31151 | -3.13965 | 3765 ft | 199 kts | 52° |
| 2026-04-14 07:49 | 53.31894 | -3.12009 | 3274 ft | 199 kts | 73° |
| 2026-04-14 07:49 | 53.32188 | -3.09815 | 2937 ft | 189 kts | 91° |
| 2026-04-14 07:49 | 53.32292 | -3.07641 | 2654 ft | 184 kts | 91° |
| 2026-04-14 07:49 | 53.32394 | -3.05575 | 2414 ft | 173 kts | 92° |
| 2026-04-14 07:50 | 53.32487 | -3.03675 | 2191 ft | 157 kts | 93° |
| 2026-04-14 07:50 | 53.32571 | -3.01928 | 1968 ft | 146 kts | 93° |
| 2026-04-14 07:50 | 53.32649 | -3.00267 | 1774 ft | 141 kts | 94° |
| 2026-04-14 07:50 | 53.32725 | -2.98653 | 1582 ft | 138 kts | 94° |
| 2026-04-14 07:51 | 53.32799 | -2.97065 | 1384 ft | 137 kts | 94° |
| 2026-04-14 07:51 | 53.32875 | -2.95483 | 1192 ft | 137 kts | 92° |
| 2026-04-14 07:51 | 53.32951 | -2.93907 | 1028 ft | 135 kts | 92° |
| 2026-04-14 07:51 | 53.33020 | -2.92351 | 854 ft | 134 kts | 92° |
| 2026-04-14 07:52 | 53.33090 | -2.90794 | 663 ft | 134 kts | 89° |
| 2026-04-14 07:52 | 53.33174 | -2.89252 | 442 ft | 132 kts | 90° |
| 2026-04-14 07:52 | 53.33246 | -2.87716 | 250 ft | 131 kts | 90° |
| 2026-04-14 07:52 | 53.33313 | -2.86186 | 95 ft | 130 kts | 90° |
| 2026-04-14 07:53 | 53.33367 | -2.84919 | 78 ft | 73 kts | 84° |
| 2026-04-14 07:53 | 53.33433 | -2.84492 | 76 ft | 31 kts | 63° |
| 2026-04-14 07:53 | 53.33504 | -2.84287 | 82 ft | 18 kts | 59° |
| 2026-04-14 07:53 | 53.33559 | -2.84288 | 71 ft | 13 kts | 285° |
| 2026-04-14 07:54 | 53.33553 | -2.84471 | 76 ft | 15 kts | 266° |
| 2026-04-14 07:54 | 53.33546 | -2.84629 | 80 ft | 12 kts | 265° |
| 2026-04-14 07:54 | 53.33539 | -2.84756 | 87 ft | 9 kts | 265° |
| 2026-04-14 07:54 | 53.33531 | -2.84929 | 85 ft | 24 kts | 265° |
| 2026-04-14 07:55 | 53.33516 | -2.85259 | 84 ft | 23 kts | 266° |
| 2026-04-14 07:55 | 53.33506 | -2.85459 | 84 ft | 11 kts | 266° |
| 2026-04-14 07:55 | 53.33547 | -2.85506 | 86 ft | 7 kts | 354° |
| 2026-04-14 07:55 | 53.33595 | -2.85509 | 88 ft | 10 kts | 5° |
| 2026-04-14 07:56 | 53.33656 | -2.85512 | 87 ft | 1 kts | 355° |
| 2026-04-14 07:56 | 53.33662 | -2.85513 | 87 ft | 2 kts | 355° |
| 2026-04-14 07:56 | 53.33666 | -2.85514 | 88 ft | 0 kts | 355° |